createdAt,value
2022-09-06T00:02:20.550Z,95328.25
2022-09-06T00:04:48.198Z,95329.56
2022-09-06T00:07:14.987Z,95323.88
2022-09-06T00:09:41.606Z,95327.91
2022-09-06T00:12:08.397Z,95315.91
2022-09-06T00:14:35.074Z,95319.16
2022-09-06T00:17:01.751Z,95316.56
2022-09-06T00:19:28.474Z,95309.63
2022-09-06T00:21:55.063Z,95304.56
2022-09-06T00:24:21.724Z,95307.81
2022-09-06T00:26:48.364Z,95306.69
2022-09-06T00:29:15.033Z,95306.03
2022-09-06T00:31:41.631Z,95310.56
2022-09-06T00:34:08.287Z,95315.59
2022-09-06T00:36:35.026Z,95313.97
2022-09-06T00:39:01.872Z,95317.88
2022-09-06T00:41:28.885Z,95317.84
2022-09-06T00:43:55.540Z,95315.75
2022-09-06T00:46:27.370Z,95313.16
2022-09-06T00:49:03.300Z,95320.78
2022-09-06T00:51:31.099Z,95329.34
2022-09-06T00:53:58.645Z,95318.31
2022-09-06T00:56:26.429Z,95325.97
2022-09-06T00:58:53.104Z,95331.28
2022-09-06T01:01:19.902Z,95331.44
2022-09-06T01:03:46.852Z,95331.44
2022-09-06T01:06:38.980Z,95328.72
2022-09-06T01:09:13.204Z,95342.97
2022-09-06T01:12:04.732Z,95337.16
2022-09-06T01:15:02.072Z,95332.28
2022-09-06T01:17:53.531Z,95336.66
2022-09-06T01:20:32.347Z,95337.13
2022-09-06T01:23:07.894Z,95337.78
2022-09-06T01:26:13.951Z,95334.03
2022-09-06T01:28:43.777Z,95337.91
2022-09-06T01:31:25.653Z,95329.34
2022-09-06T01:34:07.782Z,95333.19
2022-09-06T01:36:45.752Z,95334.69
2022-09-06T01:39:29.176Z,95335.31
2022-09-06T01:41:58.332Z,95332.59
2022-09-06T01:44:27.444Z,95334.28
2022-09-06T01:47:22.027Z,95334.22
2022-09-06T01:50:25.375Z,95340.50
2022-09-06T01:53:26.930Z,95343.75
2022-09-06T01:56:08.789Z,95337.00
2022-09-06T01:59:06.042Z,95332.09
2022-09-06T02:01:45.412Z,95342.47
2022-09-06T02:04:17.999Z,95341.50
2022-09-06T02:06:54.990Z,95344.75
2022-09-06T02:09:25.136Z,95343.94
2022-09-06T02:11:56.662Z,95344.56
2022-09-06T02:14:30.465Z,95351.50
2022-09-06T02:16:59.110Z,95347.59
2022-09-06T02:19:46.136Z,95343.72
2022-09-06T02:22:17.279Z,95343.19
2022-09-06T02:24:47.558Z,95341.56
2022-09-06T02:27:14.638Z,95341.88
2022-09-06T02:29:41.707Z,95342.03
2022-09-06T02:32:16.181Z,95345.91
2022-09-06T02:34:43.308Z,95353.06
2022-09-06T02:37:12.927Z,95355.22
2022-09-06T02:39:39.936Z,95348.53
2022-09-06T02:42:10.354Z,95348.06
2022-09-06T02:44:36.946Z,95340.13
2022-09-06T02:47:04.091Z,95343.97
2022-09-06T02:49:31.550Z,95341.41
2022-09-06T02:51:58.574Z,95340.25
2022-09-06T02:54:25.234Z,95345.13
2022-09-06T02:56:52.599Z,95343.97
2022-09-06T02:59:19.410Z,95348.38
2022-09-06T03:01:46.056Z,95347.72
2022-09-06T03:04:12.692Z,95343.31
2022-09-06T03:06:39.288Z,95344.91
2022-09-06T03:09:05.971Z,95343.97
2022-09-06T03:11:32.665Z,95337.00
2022-09-06T03:13:59.245Z,95328.94
2022-09-06T03:16:25.873Z,95335.44
2022-09-06T03:18:52.489Z,95332.19
2022-09-06T03:21:19.104Z,95326.34
2022-09-06T03:23:45.991Z,95329.75
2022-09-06T03:26:12.780Z,95324.38
2022-09-06T03:28:39.613Z,95329.72
2022-09-06T03:31:06.513Z,95341.16
2022-09-06T03:33:33.200Z,95333.25
2022-09-06T03:36:01.455Z,95334.41
2022-09-06T03:38:29.811Z,95336.53
2022-09-06T03:40:56.640Z,95321.44
2022-09-06T03:43:24.721Z,95327.56
2022-09-06T03:45:53.796Z,95329.31
2022-09-06T03:48:22.269Z,95326.53
2022-09-06T03:50:52.024Z,95329.56
2022-09-06T03:53:19.049Z,95336.03
2022-09-06T03:55:47.171Z,95337.31
2022-09-06T03:58:14.112Z,95337.84
2022-09-06T04:00:41.232Z,95334.63
2022-09-06T04:03:07.990Z,95326.25
2022-09-06T04:05:35.119Z,95321.28
2022-09-06T04:08:02.446Z,95320.50
2022-09-06T04:10:29.587Z,95329.72
2022-09-06T04:12:56.221Z,95333.25
2022-09-06T04:15:22.813Z,95333.91
2022-09-06T04:17:49.524Z,95341.50
2022-09-06T04:20:17.365Z,95336.84
2022-09-06T04:22:44.116Z,95336.38
2022-09-06T04:25:10.773Z,95338.66
2022-09-06T04:27:37.405Z,95340.72
2022-09-06T04:30:04.492Z,95341.72
2022-09-06T04:32:32.654Z,95341.66
2022-09-06T04:34:59.278Z,95345.97
2022-09-06T04:37:26.292Z,95344.34
2022-09-06T04:39:52.924Z,95345.78
2022-09-06T04:42:19.791Z,95342.25
2022-09-06T04:44:46.405Z,95339.41
2022-09-06T04:47:15.307Z,95338.56
2022-09-06T04:49:42.665Z,95342.63
2022-09-06T04:52:10.113Z,95342.31
2022-09-06T04:54:36.858Z,95348.34
2022-09-06T04:57:03.794Z,95344.78
2022-09-06T04:59:30.426Z,95343.78
2022-09-06T05:01:57.122Z,95348.97
2022-09-06T05:04:24.128Z,95356.72
2022-09-06T05:06:59.492Z,95370.00
2022-09-06T05:09:26.123Z,95376.41
2022-09-06T05:11:52.710Z,95390.91
2022-09-06T05:14:19.479Z,95407.22
2022-09-06T05:16:46.675Z,95413.31
2022-09-06T05:19:13.376Z,95421.41
2022-09-06T05:21:39.990Z,95424.06
2022-09-06T05:24:06.644Z,95425.53
2022-09-06T05:26:33.444Z,95426.38
2022-09-06T05:29:00.047Z,95425.38
2022-09-06T05:31:32.377Z,95418.28
2022-09-06T05:33:59.940Z,95414.84
2022-09-06T05:36:28.275Z,95416.31
2022-09-06T05:38:56.115Z,95415.19
2022-09-06T05:41:23.593Z,95410.13
2022-09-06T05:43:50.385Z,95412.88
2022-09-06T05:46:17.666Z,95415.47
2022-09-06T05:48:44.424Z,95405.09
2022-09-06T05:51:13.198Z,95412.34
2022-09-06T05:53:45.103Z,95411.03
2022-09-06T05:56:13.577Z,95412.44
2022-09-06T05:58:40.784Z,95410.97
2022-09-06T06:01:28.388Z,95410.94
2022-09-06T06:03:57.023Z,95416.91
2022-09-06T06:06:25.243Z,95428.91
2022-09-06T06:08:51.929Z,95419.16
2022-09-06T06:11:19.035Z,95415.84
2022-09-06T06:13:45.690Z,95411.78
2022-09-06T06:16:15.481Z,95416.13
2022-09-06T06:18:42.535Z,95418.03
2022-09-06T06:21:15.183Z,95434.78
2022-09-06T06:23:44.219Z,95453.78
2022-09-06T06:26:12.674Z,95471.03
2022-09-06T06:28:40.174Z,95474.94
2022-09-06T06:31:08.639Z,95482.22
2022-09-06T06:33:36.349Z,95491.59
2022-09-06T06:36:14.020Z,95504.75
2022-09-06T06:38:42.800Z,95503.59
2022-09-06T06:41:11.774Z,95512.19
2022-09-06T06:43:39.011Z,95507.50
2022-09-06T06:46:07.504Z,95518.00
2022-09-06T06:48:34.898Z,95513.44
2022-09-06T06:51:01.957Z,95509.06
2022-09-06T06:53:28.788Z,95497.94
2022-09-06T06:55:55.396Z,95495.81
2022-09-06T06:58:22.048Z,95509.78
2022-09-06T07:00:48.796Z,95519.75
2022-09-06T07:03:15.558Z,95521.72
2022-09-06T07:06:17.110Z,95509.16
2022-09-06T07:08:34.758Z,95501.13
2022-09-06T07:11:01.567Z,95509.06
2022-09-06T07:13:28.690Z,95510.84
2022-09-06T07:16:24.710Z,95521.63
2022-09-06T07:18:52.791Z,95513.13
2022-09-06T07:21:42.178Z,95502.53
2022-09-06T07:24:09.534Z,95490.22
2022-09-06T07:26:38.469Z,95485.09
2022-09-06T07:29:07.036Z,95480.31
2022-09-06T07:34:22.078Z,95474.75
2022-09-06T07:36:51.638Z,95467.63
2022-09-06T07:39:18.252Z,95468.81
2022-09-06T07:41:44.842Z,95471.31
2022-09-06T07:44:11.500Z,95467.13
2022-09-06T07:46:38.372Z,95474.16
2022-09-06T07:49:06.307Z,95470.38
2022-09-06T07:51:33.069Z,95470.38
2022-09-06T07:54:29.343Z,95460.91
2022-09-06T07:56:47.667Z,95466.22
2022-09-06T07:59:14.778Z,95456.72
2022-09-06T08:01:42.068Z,95464.59
2022-09-06T08:04:14.136Z,95454.59
2022-09-06T08:09:35.033Z,95455.25
2022-09-06T08:12:07.183Z,95451.59
2022-09-06T08:14:35.106Z,95460.50
2022-09-06T08:17:04.952Z,95464.97
2022-09-06T08:19:31.532Z,95458.34
2022-09-06T08:21:58.151Z,95457.38
2022-09-06T08:24:24.796Z,95451.56
2022-09-06T08:26:51.751Z,95447.34
2022-09-06T08:29:19.933Z,95453.53
2022-09-06T08:31:47.062Z,95448.47
2022-09-06T08:34:14.373Z,95453.94
2022-09-06T08:36:42.251Z,95444.22
2022-09-06T08:39:10.206Z,95455.50
2022-09-06T08:42:00.211Z,95451.88
2022-09-06T08:47:24.477Z,95442.50
2022-09-06T08:49:54.619Z,95444.91
2022-09-06T08:53:16.636Z,95436.47
2022-09-06T08:55:54.156Z,95434.56
2022-09-06T08:58:29.942Z,95427.41
2022-09-06T09:01:02.692Z,95428.03
2022-09-06T09:03:36.638Z,95423.16
2022-09-06T09:06:05.603Z,95415.25
2022-09-06T09:08:48.235Z,95414.56
2022-09-06T09:11:18.610Z,95406.56
2022-09-06T09:14:15.958Z,95402.34
2022-09-06T09:16:43.160Z,95399.38
2022-09-06T09:19:09.896Z,95387.19
2022-09-06T09:21:38.276Z,95380.81
2022-09-06T09:24:09.110Z,95380.66
2022-09-06T09:26:56.858Z,95383.72
2022-09-06T09:29:28.016Z,95378.00
2022-09-06T09:31:57.216Z,95377.81
2022-09-06T09:34:40.583Z,95373.44
2022-09-06T09:40:00.813Z,95366.13
2022-09-06T09:42:37.720Z,95370.81
2022-09-06T09:45:29.289Z,95364.88
2022-09-06T09:47:56.673Z,95366.25
2022-09-06T09:50:33.808Z,95362.53
2022-09-06T09:53:22.317Z,95359.22
2022-09-06T09:55:56.150Z,95355.38
2022-09-06T09:58:28.617Z,95356.31
2022-09-06T10:01:31.801Z,95348.25
2022-09-06T10:09:37.215Z,95340.19
2022-09-06T10:12:03.964Z,95337.13
2022-09-06T10:14:40.305Z,95339.59
2022-09-06T10:17:07.004Z,95341.56
2022-09-06T10:19:37.338Z,95341.50
2022-09-06T10:22:23.501Z,95337.72
2022-09-06T10:24:59.094Z,95336.84
2022-09-06T10:27:27.307Z,95341.75
2022-09-06T10:30:00.719Z,95336.59
2022-09-06T10:32:36.918Z,95346.81
2022-09-06T10:35:15.011Z,95338.56
2022-09-06T10:37:55.724Z,95339.50
2022-09-06T10:40:47.515Z,95328.69
2022-09-06T10:43:19.780Z,95327.56
2022-09-06T10:46:02.614Z,95327.91
2022-09-06T10:48:39.152Z,95322.41
2022-09-06T10:51:33.537Z,95320.00
2022-09-06T10:54:11.055Z,95325.69
2022-09-06T11:00:05.759Z,95304.25
2022-09-06T11:02:45.077Z,95302.78
2022-09-06T11:10:58.414Z,95306.63
2022-09-06T11:13:27.552Z,95304.88
2022-09-06T11:15:58.141Z,95303.91
2022-09-06T11:18:53.976Z,95309.47
2022-09-06T11:21:41.997Z,95294.91
2022-09-06T11:24:39.897Z,95303.00
2022-09-06T11:27:24.700Z,95293.78
2022-09-06T11:29:56.546Z,95291.63
2022-09-06T11:32:37.880Z,95283.50
2022-09-06T11:35:09.944Z,95288.03
2022-09-06T11:37:40.955Z,95284.28
2022-09-06T11:40:26.545Z,95285.88
2022-09-06T11:42:54.365Z,95289.28
2022-09-06T11:45:22.256Z,95276.13
2022-09-06T11:47:49.938Z,95283.91
2022-09-06T11:50:24.359Z,95275.56
2022-09-06T11:53:14.536Z,95276.84
2022-09-06T11:55:43.788Z,95261.16
2022-09-06T11:58:22.741Z,95265.25
2022-09-06T12:01:28.222Z,95252.47
2022-09-06T12:04:06.551Z,95253.94
2022-09-06T12:06:35.424Z,95254.81
2022-09-06T12:09:22.219Z,95251.94
2022-09-06T12:11:48.931Z,95247.69
2022-09-06T12:14:21.410Z,95246.88
2022-09-06T12:17:07.243Z,95252.56
2022-09-06T12:19:55.218Z,95249.25
2022-09-06T12:22:27.837Z,95248.78
2022-09-06T12:25:02.044Z,95238.63
2022-09-06T12:27:32.934Z,95234.00
2022-09-06T12:30:05.496Z,95229.00
2022-09-06T12:32:37.282Z,95229.28
2022-09-06T12:38:12.039Z,95225.75
2022-09-06T12:40:45.479Z,95228.00
2022-09-06T12:43:14.139Z,95229.56
2022-09-06T12:45:45.774Z,95228.56
2022-09-06T12:48:27.541Z,95228.50
2022-09-06T12:51:06.416Z,95235.25
2022-09-06T12:53:34.887Z,95230.84
2022-09-06T12:56:07.418Z,95225.75
2022-09-06T12:58:35.617Z,95222.91
2022-09-06T13:01:25.211Z,95225.69
2022-09-06T13:04:05.084Z,95233.81
2022-09-06T13:06:36.509Z,95228.22
2022-09-06T13:09:03.691Z,95222.53
2022-09-06T13:11:38.864Z,95217.06
2022-09-06T13:14:27.707Z,95215.13
2022-09-06T13:16:58.077Z,95213.00
2022-09-06T13:19:32.965Z,95211.16
2022-09-06T13:22:01.117Z,95205.78
2022-09-06T13:24:34.074Z,95202.19
2022-09-06T13:27:01.240Z,95188.44
2022-09-06T13:29:31.813Z,95189.97
2022-09-06T13:32:01.522Z,95191.94
2022-09-06T13:34:32.330Z,95195.53
2022-09-06T13:37:05.915Z,95189.44
2022-09-06T13:39:35.903Z,95183.03
2022-09-06T13:42:08.484Z,95182.06
2022-09-06T13:44:38.073Z,95179.50
2022-09-06T13:47:05.656Z,95180.88
2022-09-06T13:49:33.826Z,95181.41
2022-09-06T13:52:02.461Z,95182.03
2022-09-06T13:54:32.787Z,95183.34
2022-09-06T13:57:01.905Z,95173.25
2022-09-06T13:59:29.351Z,95174.59
2022-09-06T14:02:02.689Z,95177.03
2022-09-06T14:04:29.719Z,95179.16
2022-09-06T14:06:57.421Z,95176.81
2022-09-06T14:09:24.505Z,95176.69
2022-09-06T14:11:51.222Z,95180.91
2022-09-06T14:14:18.396Z,95171.38
2022-09-06T14:16:45.954Z,95169.50
2022-09-06T14:19:13.017Z,95166.84
2022-09-06T14:21:40.257Z,95164.44
2022-09-06T14:24:07.635Z,95163.53
2022-09-06T14:26:36.296Z,95168.09
2022-09-06T14:29:03.847Z,95166.41
2022-09-06T14:31:32.883Z,95160.16
2022-09-06T14:34:00.907Z,95170.06
2022-09-06T14:36:31.985Z,95160.81
2022-09-06T14:39:00.057Z,95164.47
2022-09-06T14:41:27.268Z,95160.75
2022-09-06T14:43:57.077Z,95159.16
2022-09-06T14:46:26.825Z,95158.72
2022-09-06T14:49:07.515Z,95155.16
2022-09-06T14:51:35.514Z,95155.44
2022-09-06T14:54:05.623Z,95159.59
2022-09-06T14:56:32.554Z,95150.13
2022-09-06T14:59:00.056Z,95150.25
2022-09-06T15:01:37.138Z,95148.47
2022-09-06T15:04:06.554Z,95144.19
2022-09-06T15:06:35.075Z,95143.09
2022-09-06T15:09:01.719Z,95146.03
2022-09-06T15:11:37.322Z,95149.38
2022-09-06T15:14:08.141Z,95140.25
2022-09-06T15:16:36.125Z,95138.53
2022-09-06T15:19:03.531Z,95135.13
2022-09-06T15:21:31.451Z,95135.50
2022-09-06T15:23:58.832Z,95132.00
2022-09-06T15:26:25.618Z,95122.13
2022-09-06T15:28:52.259Z,95128.88
2022-09-06T15:31:19.607Z,95126.28
2022-09-06T15:33:48.913Z,95122.13
2022-09-06T15:36:16.254Z,95119.81
2022-09-06T15:38:47.379Z,95121.41
2022-09-06T15:41:25.341Z,95110.03
2022-09-06T15:44:07.219Z,95117.50
2022-09-06T15:46:37.644Z,95114.31
2022-09-06T15:49:08.113Z,95120.97
2022-09-06T15:51:36.871Z,95109.66
2022-09-06T15:54:04.676Z,95110.78
2022-09-06T15:56:31.504Z,95113.16
2022-09-06T15:58:58.279Z,95109.81
2022-09-06T16:01:26.642Z,95112.16
2022-09-06T16:03:58.494Z,95108.91
2022-09-06T16:06:28.026Z,95103.19
2022-09-06T16:09:01.164Z,95109.06
2022-09-06T16:11:30.168Z,95108.38
2022-09-06T16:13:56.938Z,95114.81
2022-09-06T16:16:23.637Z,95106.97
2022-09-06T16:18:52.270Z,95118.53
2022-09-06T16:21:24.585Z,95117.56
2022-09-06T16:23:57.218Z,95121.41
2022-09-06T16:26:26.254Z,95122.22
2022-09-06T16:28:53.766Z,95137.06
2022-09-06T16:31:22.256Z,95134.56
2022-09-06T16:33:49.788Z,95136.72
2022-09-06T16:36:17.651Z,95128.78
2022-09-06T16:38:45.192Z,95122.53
2022-09-06T16:41:35.974Z,95104.09
2022-09-06T16:44:02.608Z,95109.88
2022-09-06T16:46:29.673Z,95110.25
2022-09-06T16:49:00.945Z,95117.72
2022-09-06T16:51:27.925Z,95121.34
2022-09-06T16:53:55.743Z,95127.88
2022-09-06T16:56:33.189Z,95123.50
2022-09-06T16:59:01.579Z,95125.97
2022-09-06T17:01:29.861Z,95121.94
2022-09-06T17:03:57.836Z,95119.00
2022-09-06T17:06:24.906Z,95125.28
2022-09-06T17:08:52.501Z,95125.72
2022-09-06T17:11:22.342Z,95122.44
2022-09-06T17:13:50.610Z,95122.44
2022-09-06T17:16:37.050Z,95122.31
2022-09-06T17:19:05.231Z,95124.28
2022-09-06T17:21:32.332Z,95132.53
2022-09-06T17:24:01.883Z,95135.69
2022-09-06T17:26:29.662Z,95135.19
2022-09-06T17:28:57.035Z,95130.59
2022-09-06T17:31:26.012Z,95128.78
2022-09-06T17:33:53.461Z,95134.47
2022-09-06T17:36:27.712Z,95135.22
2022-09-06T17:39:07.358Z,95139.72
2022-09-06T17:41:39.687Z,95141.88
2022-09-06T17:44:10.405Z,95129.25
2022-09-06T17:46:47.755Z,95140.06
2022-09-06T17:49:19.562Z,95130.69
2022-09-06T17:51:47.224Z,95131.56
2022-09-06T17:54:14.703Z,95131.81
2022-09-06T17:56:41.435Z,95130.56
2022-09-06T17:59:10.468Z,95137.56
2022-09-06T18:01:38.607Z,95136.06
2022-09-06T18:04:06.402Z,95134.09
2022-09-06T18:06:34.116Z,95130.88
2022-09-06T18:09:09.774Z,95137.13
2022-09-06T18:11:39.125Z,95133.78
2022-09-06T18:14:11.023Z,95140.44
2022-09-06T18:16:39.991Z,95140.09
2022-09-06T18:19:08.641Z,95139.69
2022-09-06T18:21:38.891Z,95144.00
2022-09-06T18:24:06.635Z,95147.91
2022-09-06T18:26:33.399Z,95161.81
2022-09-06T18:29:01.080Z,95156.53
2022-09-06T18:31:28.513Z,95156.53
2022-09-06T18:33:59.839Z,95153.22
2022-09-06T18:36:31.789Z,95155.16
2022-09-06T18:39:02.878Z,95149.56
2022-09-06T18:41:48.123Z,95154.44
2022-09-06T18:44:15.201Z,95153.31
2022-09-06T18:46:41.927Z,95158.19
2022-09-06T18:49:08.705Z,95160.78
2022-09-06T18:51:35.313Z,95164.56
2022-09-06T18:54:02.465Z,95162.97
2022-09-06T18:56:29.416Z,95166.81
2022-09-06T18:59:01.294Z,95165.00
2022-09-06T19:01:29.962Z,95163.56
2022-09-06T19:03:57.990Z,95155.84
2022-09-06T19:06:25.694Z,95151.78
2022-09-06T19:08:53.845Z,95151.19
2022-09-06T19:11:22.132Z,95149.19
2022-09-06T19:13:53.754Z,95146.56
2022-09-06T19:16:22.212Z,95147.84
2022-09-06T19:18:50.386Z,95145.19
2022-09-06T19:21:19.611Z,95139.00
2022-09-06T19:23:48.773Z,95142.84
2022-09-06T19:26:18.416Z,95147.09
2022-09-06T19:28:55.716Z,95151.78
2022-09-06T19:31:24.377Z,95157.41
2022-09-06T19:33:52.000Z,95155.41
2022-09-06T19:36:20.374Z,95146.94
2022-09-06T19:39:02.439Z,95137.84
2022-09-06T19:41:31.135Z,95131.59
2022-09-06T19:43:58.890Z,95127.97
2022-09-06T19:46:26.874Z,95132.81
2022-09-06T19:48:56.179Z,95132.84
2022-09-06T19:51:24.656Z,95126.56
2022-09-06T19:53:54.030Z,95121.16
2022-09-06T19:56:23.434Z,95119.16
2022-09-06T19:59:10.485Z,95114.94
2022-09-06T20:01:41.446Z,95108.69
2022-09-06T20:04:10.701Z,95105.66
2022-09-06T20:06:38.320Z,95099.00
2022-09-06T20:09:09.335Z,95100.03
2022-09-06T20:11:36.455Z,95092.38
2022-09-06T20:14:03.318Z,95091.16
2022-09-06T20:16:30.979Z,95085.09
2022-09-06T20:18:59.590Z,95087.13
2022-09-06T20:21:27.938Z,95092.56
2022-09-06T20:23:57.047Z,95098.00
2022-09-06T20:26:25.636Z,95091.75
2022-09-06T20:28:59.703Z,95084.72
2022-09-06T20:31:27.906Z,95082.94
2022-09-06T20:33:55.026Z,95084.50
2022-09-06T20:36:21.733Z,95084.47
2022-09-06T20:38:48.615Z,95087.09
2022-09-06T20:41:19.988Z,95085.88
2022-09-06T20:43:51.675Z,95081.06
2022-09-06T20:46:20.248Z,95086.69
2022-09-06T20:48:47.611Z,95076.22
2022-09-06T20:51:18.941Z,95072.81
2022-09-06T20:53:48.620Z,95078.03
2022-09-06T20:56:20.851Z,95068.97
2022-09-06T20:58:52.515Z,95068.69
2022-09-06T21:01:22.987Z,95068.84
2022-09-06T21:03:52.082Z,95069.41
2022-09-06T21:06:20.391Z,95071.94
2022-09-06T21:08:47.872Z,95075.66
2022-09-06T21:11:14.746Z,95070.63
2022-09-06T21:13:41.971Z,95069.41
2022-09-06T21:16:08.933Z,95080.78
2022-09-06T21:18:36.222Z,95077.28
2022-09-06T21:21:06.272Z,95079.91
2022-09-06T21:23:35.232Z,95082.97
2022-09-06T21:26:05.224Z,95082.53
2022-09-06T21:28:34.391Z,95094.16
2022-09-06T21:31:05.987Z,95085.97
2022-09-06T21:33:33.254Z,95085.41
2022-09-06T21:36:30.982Z,95091.09
2022-09-06T21:39:00.408Z,95093.50
2022-09-06T21:41:28.427Z,95088.28
2022-09-06T21:44:00.027Z,95086.69
2022-09-06T21:46:33.562Z,95093.13
2022-09-06T21:49:04.114Z,95088.22
2022-09-06T21:51:31.803Z,95095.84
2022-09-06T21:53:59.171Z,95092.41
2022-09-06T21:56:26.528Z,95087.78
2022-09-06T21:58:55.670Z,95083.13
2022-09-06T22:01:23.837Z,95091.13
2022-09-06T22:03:51.399Z,95090.72
2022-09-06T22:06:19.847Z,95092.50
2022-09-06T22:08:47.653Z,95089.25
2022-09-06T22:11:24.151Z,95089.19
2022-09-06T22:13:51.307Z,95091.22
2022-09-06T22:16:20.655Z,95091.06
2022-09-06T22:18:48.854Z,95093.38
2022-09-06T22:21:20.092Z,95091.63
2022-09-06T22:23:55.577Z,95091.22
2022-09-06T22:26:23.599Z,95092.75
2022-09-06T22:28:55.725Z,95083.94
2022-09-06T22:31:23.595Z,95074.34
2022-09-06T22:33:50.733Z,95077.91
2022-09-06T22:36:17.396Z,95066.44
2022-09-06T22:38:44.150Z,95068.69
2022-09-06T22:41:11.442Z,95072.66
2022-09-06T22:43:38.116Z,95065.78
2022-09-06T22:46:07.847Z,95066.91
2022-09-06T22:48:35.202Z,95064.00
2022-09-06T22:51:03.372Z,95065.97
2022-09-06T22:53:30.727Z,95063.13
2022-09-06T22:55:57.406Z,95058.09
2022-09-06T22:58:26.874Z,95053.94
2022-09-06T23:00:54.787Z,95057.31
2022-09-06T23:03:22.013Z,95053.44
2022-09-06T23:05:49.202Z,95055.25
2022-09-06T23:08:16.307Z,95051.44
2022-09-06T23:10:43.916Z,95041.47
2022-09-06T23:13:11.276Z,95039.00
2022-09-06T23:15:40.729Z,95035.78
2022-09-06T23:18:08.364Z,95038.53
2022-09-06T23:20:37.115Z,95038.13
2022-09-06T23:23:07.529Z,95043.94
2022-09-06T23:25:40.307Z,95048.28
2022-09-06T23:28:07.064Z,95048.81
2022-09-06T23:30:36.916Z,95045.44
2022-09-06T23:33:03.797Z,95042.69
2022-09-06T23:35:30.475Z,95040.16
2022-09-06T23:37:57.638Z,95041.66
2022-09-06T23:40:24.377Z,95038.13
2022-09-06T23:42:51.025Z,95030.56
2022-09-06T23:45:17.647Z,95036.84
2022-09-06T23:47:44.272Z,95038.75
2022-09-06T23:50:10.923Z,95050.22
2022-09-06T23:52:37.545Z,95045.13
2022-09-06T23:55:04.481Z,95043.16
2022-09-06T23:57:31.141Z,95044.69
2022-09-06T23:59:57.758Z,95038.72
